createdAt,value
2018-07-09T00:01:06.152Z,100836.69
2018-07-09T00:03:12.488Z,100830.13
2018-07-09T00:05:17.786Z,100832.79
2018-07-09T00:07:23.092Z,100833.27
2018-07-09T00:09:28.518Z,100828.27
2018-07-09T00:11:33.873Z,100837.61
2018-07-09T00:13:39.555Z,100836.92
2018-07-09T00:15:45.033Z,100837.57
2018-07-09T00:17:50.463Z,100835.91
2018-07-09T00:19:55.913Z,100839.97
2018-07-09T00:22:01.336Z,100839.05
2018-07-09T00:24:07.167Z,100838.13
2018-07-09T00:26:12.546Z,100839.88
2018-07-09T00:28:18.994Z,100840.66
2018-07-09T00:30:24.593Z,100847.25
2018-07-09T00:32:29.924Z,100849.66
2018-07-09T00:34:35.322Z,100844.11
2018-07-09T00:36:40.777Z,100840.09
2018-07-09T00:38:46.179Z,100839.94
2018-07-09T00:40:51.464Z,100847.50
2018-07-09T00:42:56.896Z,100845.48
2018-07-09T00:45:02.295Z,100846.08
2018-07-09T00:47:07.732Z,100846.55
2018-07-09T00:49:13.407Z,100842.34
2018-07-09T00:51:18.836Z,100839.84
2018-07-09T00:53:24.232Z,100844.84
2018-07-09T00:55:29.776Z,100845.02
2018-07-09T00:57:35.532Z,100843.09
2018-07-09T00:59:41.045Z,100849.81
2018-07-09T01:01:46.434Z,100853.77
2018-07-09T01:03:51.868Z,100848.64
2018-07-09T01:05:57.320Z,100857.56
2018-07-09T01:08:02.720Z,100854.34
2018-07-09T01:10:08.151Z,100853.64
2018-07-09T01:12:13.921Z,100850.61
2018-07-09T01:14:19.302Z,100849.68
2018-07-09T01:16:24.800Z,100849.63
2018-07-09T01:18:30.263Z,100847.33
2018-07-09T01:20:35.663Z,100842.61
2018-07-09T01:22:41.060Z,100839.19
2018-07-09T01:24:46.584Z,100842.15
2018-07-09T01:26:52.267Z,100842.62
2018-07-09T01:28:57.751Z,100838.25
2018-07-09T01:31:03.139Z,100836.84
2018-07-09T01:33:08.580Z,100829.56
2018-07-09T01:35:14.564Z,100834.31
2018-07-09T01:37:20.066Z,100841.90
2018-07-09T01:39:25.520Z,100841.90
2018-07-09T01:41:30.941Z,100842.46
2018-07-09T01:43:36.326Z,100847.52
2018-07-09T01:45:41.657Z,100838.52
2018-07-09T01:47:47.085Z,100835.30
2018-07-09T01:49:52.462Z,100832.83
2018-07-09T01:51:57.841Z,100829.41
2018-07-09T01:54:03.412Z,100834.06
2018-07-09T01:56:08.844Z,100831.41
2018-07-09T01:58:14.234Z,100833.98
2018-07-09T02:00:19.566Z,100830.37
2018-07-09T02:02:25.190Z,100821.73
2018-07-09T02:04:30.569Z,100825.72
2018-07-09T02:06:35.917Z,100820.53
2018-07-09T02:08:41.793Z,100821.47
2018-07-09T02:10:47.128Z,100821.17
2018-07-09T02:12:52.640Z,100824.42
2018-07-09T02:14:58.055Z,100816.75
2018-07-09T02:17:03.473Z,100830.78
2018-07-09T02:19:08.785Z,100822.42
2018-07-09T02:21:14.195Z,100824.98
2018-07-09T02:23:19.604Z,100825.83
2018-07-09T02:25:24.778Z,100830.77
2018-07-09T02:27:30.512Z,100824.11
2018-07-09T02:29:35.957Z,100819.95
2018-07-09T02:31:41.384Z,100821.86
2018-07-09T02:33:46.827Z,100823.19
2018-07-09T02:35:52.181Z,100817.88
2018-07-09T02:37:58.254Z,100819.30
2018-07-09T02:40:03.733Z,100817.11
2018-07-09T02:42:09.278Z,100823.94
2018-07-09T02:44:14.751Z,100817.50
2018-07-09T02:46:20.126Z,100825.09
2018-07-09T02:48:25.584Z,100824.50
2018-07-09T02:50:30.933Z,100830.74
2018-07-09T02:52:36.397Z,100825.25
2018-07-09T02:54:41.873Z,100833.80
2018-07-09T02:56:47.361Z,100831.23
2018-07-09T02:58:52.789Z,100830.28
2018-07-09T03:00:57.919Z,100828.38
2018-07-09T03:03:03.144Z,100831.97
2018-07-09T03:05:08.714Z,100837.08
2018-07-09T03:07:14.171Z,100835.56
2018-07-09T03:09:19.722Z,100837.36
2018-07-09T03:11:25.334Z,100836.03
2018-07-09T03:13:30.786Z,100840.56
2018-07-09T03:15:36.242Z,100839.41
2018-07-09T03:17:41.681Z,100843.19
2018-07-09T03:19:47.096Z,100839.77
2018-07-09T03:21:52.540Z,100845.27
2018-07-09T03:23:58.081Z,100844.88
2018-07-09T03:26:03.449Z,100842.30
2018-07-09T03:28:08.941Z,100840.90
2018-07-09T03:30:14.410Z,100845.27
2018-07-09T03:32:19.868Z,100840.70
2018-07-09T03:34:25.388Z,100844.79
2018-07-09T03:36:30.833Z,100840.21
2018-07-09T03:38:36.498Z,100841.20
2018-07-09T03:40:42.042Z,100835.05
2018-07-09T03:42:47.448Z,100836.62
2018-07-09T03:44:52.890Z,100833.39
2018-07-09T03:46:58.308Z,100834.36
2018-07-09T03:49:03.771Z,100834.24
2018-07-09T03:51:09.166Z,100834.08
2018-07-09T03:53:14.637Z,100837.00
2018-07-09T03:55:20.196Z,100844.09
2018-07-09T03:57:25.570Z,100847.50
2018-07-09T03:59:31.039Z,100846.06
2018-07-09T04:01:36.548Z,100843.21
2018-07-09T04:03:41.949Z,100849.92
2018-07-09T04:05:47.571Z,100854.01
2018-07-09T04:07:53.209Z,100852.38
2018-07-09T04:09:58.232Z,100853.81
2018-07-09T04:12:03.280Z,100850.30
2018-07-09T04:14:08.770Z,100860.05
2018-07-09T04:16:14.323Z,100851.90
2018-07-09T04:18:23.268Z,100859.92
2018-07-09T04:20:28.759Z,100853.46
2018-07-09T04:22:34.277Z,100849.95
2018-07-09T04:24:39.909Z,100854.44
2018-07-09T04:26:45.256Z,100852.84
2018-07-09T04:28:50.845Z,100854.01
2018-07-09T04:30:56.270Z,100854.67
2018-07-09T04:33:01.673Z,100854.13
2018-07-09T04:35:07.145Z,100852.22
2018-07-09T04:37:12.540Z,100851.47
2018-07-09T04:39:18.000Z,100843.74
2018-07-09T04:41:23.462Z,100837.78
2018-07-09T04:43:28.880Z,100836.56
2018-07-09T04:45:34.276Z,100839.24
2018-07-09T04:47:39.643Z,100840.87
2018-07-09T04:49:45.037Z,100841.73
2018-07-09T04:51:50.585Z,100838.61
2018-07-09T04:53:56.192Z,100842.00
2018-07-09T04:56:01.562Z,100833.30
2018-07-09T04:58:07.015Z,100838.15
2018-07-09T05:00:12.398Z,100831.06
2018-07-09T05:02:17.779Z,100839.09
2018-07-09T05:04:23.257Z,100840.91
2018-07-09T05:06:28.724Z,100840.44
2018-07-09T05:08:34.172Z,100844.91
2018-07-09T05:10:39.562Z,100846.13
2018-07-09T05:12:44.697Z,100848.58
2018-07-09T05:14:50.184Z,100841.27
2018-07-09T05:16:55.510Z,100842.51
2018-07-09T05:19:01.091Z,100841.65
2018-07-09T05:21:06.576Z,100844.01
2018-07-09T05:23:12.053Z,100843.62
2018-07-09T05:25:17.557Z,100842.08
2018-07-09T05:27:23.048Z,100841.81
2018-07-09T05:29:28.472Z,100846.22
2018-07-09T05:31:33.871Z,100841.46
2018-07-09T05:33:39.008Z,100847.15
2018-07-09T05:35:44.339Z,100845.11
2018-07-09T05:37:50.018Z,100847.16
2018-07-09T05:39:55.689Z,100843.15
2018-07-09T05:42:01.062Z,100840.59
2018-07-09T05:44:06.486Z,100847.41
2018-07-09T05:46:13.029Z,100846.99
2018-07-09T05:48:18.657Z,100839.27
2018-07-09T05:50:24.078Z,100838.58
2018-07-09T05:52:29.845Z,100839.15
2018-07-09T05:54:35.491Z,100832.18
2018-07-09T05:56:41.063Z,100828.12
2018-07-09T05:58:46.796Z,100831.86
2018-07-09T06:00:52.305Z,100827.34
2018-07-09T06:02:57.759Z,100830.31
2018-07-09T06:05:03.330Z,100835.37
2018-07-09T06:07:08.640Z,100833.41
2018-07-09T06:09:14.284Z,100836.20
2018-07-09T06:11:19.710Z,100836.98
2018-07-09T06:13:25.202Z,100839.88
2018-07-09T06:15:30.775Z,100830.69
2018-07-09T06:17:36.295Z,100825.88
2018-07-09T06:19:41.909Z,100830.17
2018-07-09T06:21:47.273Z,100822.05
2018-07-09T06:23:52.688Z,100821.97
2018-07-09T06:25:58.055Z,100827.08
2018-07-09T06:28:03.488Z,100830.94
2018-07-09T06:30:09.089Z,100830.25
2018-07-09T06:32:14.462Z,100830.09
2018-07-09T06:34:19.895Z,100830.31
2018-07-09T06:36:25.552Z,100837.27
2018-07-09T06:38:31.116Z,100843.52
2018-07-09T06:40:36.617Z,100834.66
2018-07-09T06:42:42.006Z,100837.52
2018-07-09T06:44:47.568Z,100848.72
2018-07-09T06:46:52.867Z,100841.69
2018-07-09T06:48:58.296Z,100844.80
2018-07-09T06:51:03.703Z,100833.11
2018-07-09T06:53:09.248Z,100837.50
2018-07-09T06:55:14.725Z,100830.83
2018-07-09T06:57:20.243Z,100831.43
2018-07-09T06:59:25.543Z,100831.09
2018-07-09T07:01:31.060Z,100832.77
2018-07-09T07:03:36.666Z,100827.90
2018-07-09T07:05:42.259Z,100823.67
2018-07-09T07:07:47.644Z,100829.55
2018-07-09T07:09:53.378Z,100827.69
2018-07-09T07:11:58.846Z,100833.95
2018-07-09T07:14:04.320Z,100832.66
2018-07-09T07:16:09.661Z,100836.00
2018-07-09T07:18:14.990Z,100831.06
2018-07-09T07:20:20.472Z,100817.22
2018-07-09T07:22:25.783Z,100828.91
2018-07-09T07:24:31.266Z,100815.73
2018-07-09T07:26:36.737Z,100809.63
2018-07-09T07:28:42.115Z,100808.05
2018-07-09T07:30:47.612Z,100814.98
2018-07-09T07:32:53.037Z,100808.19
2018-07-09T07:34:58.322Z,100806.83
2018-07-09T07:37:03.691Z,100804.05
2018-07-09T07:39:09.056Z,100808.31
2018-07-09T07:41:14.445Z,100801.38
2018-07-09T07:43:19.991Z,100805.00
2018-07-09T07:45:25.345Z,100801.44
2018-07-09T07:47:30.939Z,100801.88
2018-07-09T07:49:36.308Z,100805.11
2018-07-09T07:51:41.708Z,100798.98
2018-07-09T07:53:47.087Z,100805.26
2018-07-09T07:55:52.461Z,100804.27
2018-07-09T07:57:57.825Z,100811.52
2018-07-09T08:00:03.310Z,100808.05
2018-07-09T08:02:09.004Z,100799.83
2018-07-09T08:04:14.401Z,100796.45
2018-07-09T08:06:19.729Z,100793.80
2018-07-09T08:08:25.121Z,100799.48
2018-07-09T08:10:30.499Z,100794.26
2018-07-09T08:13:31.303Z,100792.26
2018-07-09T08:14:41.436Z,100796.85
2018-07-09T08:16:46.863Z,100794.12
2018-07-09T08:18:51.934Z,100793.26
2018-07-09T08:20:57.318Z,100802.33
2018-07-09T08:23:02.433Z,100801.91
2018-07-09T08:25:07.626Z,100796.81
2018-07-09T08:27:12.904Z,100802.35
2018-07-09T08:29:18.296Z,100801.69
2018-07-09T08:31:24.036Z,100796.25
2018-07-09T08:33:29.373Z,100797.58
2018-07-09T08:35:34.899Z,100796.72
2018-07-09T08:37:40.323Z,100800.55
2018-07-09T08:39:45.546Z,100798.97
2018-07-09T08:41:50.811Z,100802.30
2018-07-09T08:43:56.279Z,100801.27
2018-07-09T08:46:02.219Z,100791.97
2018-07-09T08:48:07.588Z,100796.31
2018-07-09T08:50:13.061Z,100802.38
2018-07-09T08:52:18.402Z,100797.97
2018-07-09T08:54:23.786Z,100788.70
2018-07-09T08:56:29.148Z,100793.58
2018-07-09T08:58:34.486Z,100795.73
2018-07-09T09:00:39.835Z,100793.02
2018-07-09T09:02:45.160Z,100788.11
2018-07-09T09:04:50.609Z,100791.50
2018-07-09T09:06:56.349Z,100791.17
2018-07-09T09:09:01.709Z,100783.60
2018-07-09T09:11:06.998Z,100786.98
2018-07-09T09:13:12.319Z,100789.67
2018-07-09T09:15:17.829Z,100779.39
2018-07-09T09:17:23.179Z,100784.78
2018-07-09T09:19:28.575Z,100779.19
2018-07-09T09:21:33.912Z,100784.08
2018-07-09T09:23:39.257Z,100781.73
2018-07-09T09:25:44.611Z,100777.67
2018-07-09T09:27:50.349Z,100780.23
2018-07-09T09:29:55.689Z,100784.95
2018-07-09T09:32:01.044Z,100779.91
2018-07-09T09:34:06.461Z,100770.66
2018-07-09T09:36:11.863Z,100766.57
2018-07-09T09:38:17.178Z,100773.62
2018-07-09T09:40:22.541Z,100764.14
2018-07-09T09:42:27.883Z,100774.62
2018-07-09T09:44:33.176Z,100766.75
2018-07-09T09:46:39.003Z,100767.12
2018-07-09T09:48:44.380Z,100764.92
2018-07-09T09:50:51.325Z,100767.30
2018-07-09T09:52:56.384Z,100760.06
2018-07-09T09:55:01.719Z,100753.66
2018-07-09T09:57:07.157Z,100755.98
2018-07-09T09:59:12.501Z,100760.03
2018-07-09T10:01:17.872Z,100754.98
2018-07-09T10:03:23.197Z,100755.16
2018-07-09T10:05:28.563Z,100750.98
2018-07-09T10:07:34.008Z,100747.80
2018-07-09T10:09:39.393Z,100744.12
2018-07-09T10:11:44.853Z,100744.31
2018-07-09T10:13:50.472Z,100744.33
2018-07-09T10:15:56.407Z,100746.03
2018-07-09T10:18:01.782Z,100752.63
2018-07-09T10:20:07.199Z,100750.13
2018-07-09T10:22:12.528Z,100749.98
2018-07-09T10:24:17.949Z,100747.28
2018-07-09T10:26:23.012Z,100749.59
2018-07-09T10:28:28.323Z,100745.55
2018-07-09T10:30:33.662Z,100734.99
2018-07-09T10:32:39.079Z,100731.95
2018-07-09T10:34:44.385Z,100738.34
2018-07-09T10:36:50.246Z,100734.77
2018-07-09T10:38:55.839Z,100733.99
2018-07-09T10:41:01.304Z,100719.83
2018-07-09T10:43:06.690Z,100728.61
2018-07-09T10:45:11.697Z,100722.22
2018-07-09T10:47:16.934Z,100719.53
2018-07-09T10:49:22.310Z,100714.14
2018-07-09T10:51:27.616Z,100710.63
2018-07-09T10:53:33.031Z,100704.54
2018-07-09T10:55:38.472Z,100708.24
2018-07-09T10:57:43.795Z,100701.84
2018-07-09T10:59:50.781Z,100704.39
2018-07-09T11:01:56.235Z,100702.35
2018-07-09T11:04:01.560Z,100706.93
2018-07-09T11:06:07.118Z,100698.84
2018-07-09T11:08:12.682Z,100714.18
2018-07-09T11:10:18.036Z,100701.69
2018-07-09T11:12:23.388Z,100703.23
2018-07-09T11:14:28.743Z,100702.38
2018-07-09T11:16:34.084Z,100696.30
2018-07-09T11:18:39.475Z,100704.73
2018-07-09T11:20:44.888Z,100692.91
2018-07-09T11:22:50.233Z,100688.55
2018-07-09T11:24:55.147Z,100689.55
2018-07-09T11:27:00.429Z,100694.95
2018-07-09T11:29:05.816Z,100687.02
2018-07-09T11:31:11.221Z,100693.95
2018-07-09T11:33:16.596Z,100695.95
2018-07-09T11:35:21.922Z,100693.45
2018-07-09T11:37:27.352Z,100699.84
2018-07-09T11:39:32.743Z,100696.14
2018-07-09T11:41:38.089Z,100702.73
2018-07-09T11:43:43.372Z,100700.03
2018-07-09T11:45:48.798Z,100694.10
2018-07-09T11:47:54.131Z,100692.44
2018-07-09T11:49:59.503Z,100698.02
2018-07-09T11:52:04.916Z,100693.47
2018-07-09T11:54:10.228Z,100691.63
2018-07-09T11:56:15.620Z,100694.32
2018-07-09T11:58:21.048Z,100692.13
2018-07-09T12:00:26.362Z,100689.58
2018-07-09T12:02:31.732Z,100691.28
2018-07-09T12:04:37.129Z,100694.31
2018-07-09T12:06:42.528Z,100696.52
2018-07-09T12:08:47.853Z,100682.52
2018-07-09T12:10:53.233Z,100691.64
2018-07-09T12:12:58.606Z,100688.78
2018-07-09T12:15:04.092Z,100688.62
2018-07-09T12:17:09.676Z,100676.16
2018-07-09T12:19:15.541Z,100673.27
2018-07-09T12:21:21.099Z,100678.34
2018-07-09T12:23:26.087Z,100678.67
2018-07-09T12:25:31.389Z,100673.42
2018-07-09T12:27:36.699Z,100670.73
2018-07-09T12:29:42.052Z,100682.05
2018-07-09T12:31:47.483Z,100667.20
2018-07-09T12:33:52.810Z,100671.58
2018-07-09T12:35:58.221Z,100672.77
2018-07-09T12:38:03.604Z,100669.72
2018-07-09T12:40:09.037Z,100663.16
2018-07-09T12:42:14.405Z,100673.60
2018-07-09T12:44:19.793Z,100659.24
2018-07-09T12:46:25.264Z,100663.13
2018-07-09T12:48:30.574Z,100664.30
2018-07-09T12:50:35.847Z,100664.64
2018-07-09T12:52:41.190Z,100668.50
2018-07-09T12:54:46.520Z,100669.70
2018-07-09T12:56:52.087Z,100666.50
2018-07-09T12:58:57.447Z,100657.20
2018-07-09T13:01:02.809Z,100653.48
2018-07-09T13:03:08.178Z,100654.50
2018-07-09T13:05:13.568Z,100652.50
2018-07-09T13:07:18.967Z,100649.45
2018-07-09T13:09:24.341Z,100647.44
2018-07-09T13:11:29.912Z,100663.79
2018-07-09T13:13:35.289Z,100651.81
2018-07-09T13:15:40.711Z,100649.47
2018-07-09T13:17:46.073Z,100643.39
2018-07-09T13:19:51.409Z,100645.70
2018-07-09T13:21:56.980Z,100636.23
2018-07-09T13:24:02.448Z,100636.91
2018-07-09T13:26:07.839Z,100638.61
2018-07-09T13:28:13.223Z,100622.38
2018-07-09T13:30:18.665Z,100624.06
2018-07-09T13:32:24.122Z,100620.86
2018-07-09T13:34:29.508Z,100618.50
2018-07-09T13:36:34.963Z,100613.57
2018-07-09T13:38:40.730Z,100628.77
2018-07-09T13:40:46.147Z,100632.97
2018-07-09T13:42:51.589Z,100638.21
2018-07-09T13:44:57.009Z,100634.16
2018-07-09T13:47:02.360Z,100626.36
2018-07-09T13:49:08.513Z,100620.94
2018-07-09T13:51:13.825Z,100620.06
2018-07-09T13:53:19.730Z,100620.23
2018-07-09T13:55:25.152Z,100613.30
2018-07-09T13:57:30.613Z,100616.69
2018-07-09T13:59:36.041Z,100617.03
2018-07-09T14:01:41.432Z,100616.86
2018-07-09T14:03:46.853Z,100613.11
2018-07-09T14:05:52.524Z,100621.93
2018-07-09T14:07:57.881Z,100614.33
2018-07-09T14:10:03.335Z,100617.03
2018-07-09T14:12:09.037Z,100611.45
2018-07-09T14:14:14.373Z,100604.19
2018-07-09T14:16:19.754Z,100606.22
2018-07-09T14:18:25.096Z,100600.30
2018-07-09T14:20:36.465Z,100593.55
2018-07-09T14:22:42.121Z,100593.88
2018-07-09T14:24:47.560Z,100598.61
2018-07-09T14:26:53.022Z,100596.08
2018-07-09T14:28:58.416Z,100598.45
2018-07-09T14:31:03.889Z,100601.66
2018-07-09T14:33:09.472Z,100588.98
2018-07-09T14:35:14.876Z,100595.71
2018-07-09T14:37:20.259Z,100593.17
2018-07-09T14:39:26.088Z,100586.92
2018-07-09T14:41:31.743Z,100582.05
2018-07-09T14:43:37.184Z,100583.58
2018-07-09T14:45:42.788Z,100587.94
2018-07-09T14:47:47.922Z,100595.84
2018-07-09T14:49:53.265Z,100592.95
2018-07-09T14:51:58.723Z,100584.80
2018-07-09T14:54:04.211Z,100584.47
2018-07-09T14:56:09.602Z,100590.21
2018-07-09T14:58:15.067Z,100587.81
2018-07-09T15:00:20.490Z,100588.78
2018-07-09T15:02:25.996Z,100584.52
2018-07-09T15:04:31.406Z,100585.97
2018-07-09T15:06:36.808Z,100574.64
2018-07-09T15:08:42.316Z,100581.73
2018-07-09T15:10:47.815Z,100575.98
2018-07-09T15:12:53.233Z,100572.23
2018-07-09T15:14:58.689Z,100573.79
2018-07-09T15:17:04.941Z,100563.14
2018-07-09T15:19:10.330Z,100568.80
2018-07-09T15:21:15.705Z,100570.53
2018-07-09T15:23:21.272Z,100567.52
2018-07-09T15:25:26.742Z,100568.06
2018-07-09T15:27:32.091Z,100571.95
2018-07-09T15:29:37.161Z,100571.31
2018-07-09T15:31:59.311Z,100565.43
2018-07-09T15:34:04.861Z,100569.35
2018-07-09T15:36:10.525Z,100569.69
2018-07-09T15:38:16.024Z,100571.20
2018-07-09T15:40:21.524Z,100563.13
2018-07-09T15:42:27.027Z,100561.44
2018-07-09T15:44:32.400Z,100559.72
2018-07-09T15:46:37.851Z,100556.98
2018-07-09T15:48:42.969Z,100561.68
2018-07-09T15:50:48.416Z,100554.75
2018-07-09T15:52:53.581Z,100553.27
2018-07-09T15:54:59.043Z,100551.58
2018-07-09T15:57:04.630Z,100550.09
2018-07-09T15:59:10.003Z,100549.58
2018-07-09T16:01:15.467Z,100552.48
2018-07-09T16:03:20.865Z,100550.15
2018-07-09T16:05:26.226Z,100537.51
2018-07-09T16:07:31.704Z,100541.05
2018-07-09T16:09:37.059Z,100535.31
2018-07-09T16:11:42.505Z,100542.58
2018-07-09T16:13:48.807Z,100535.14
2018-07-09T16:15:54.192Z,100541.36
2018-07-09T16:17:59.587Z,100535.45
2018-07-09T16:20:04.969Z,100538.86
2018-07-09T16:22:10.377Z,100536.02
2018-07-09T16:24:15.830Z,100521.32
2018-07-09T16:26:21.220Z,100524.23
2018-07-09T16:28:26.614Z,100519.66
2018-07-09T16:30:32.013Z,100526.62
2018-07-09T16:32:37.342Z,100524.05
2018-07-09T16:34:42.723Z,100526.92
2018-07-09T16:36:48.175Z,100524.42
2018-07-09T16:38:53.620Z,100523.07
2018-07-09T16:40:58.846Z,100528.61
2018-07-09T16:43:04.175Z,100524.73
2018-07-09T16:45:09.572Z,100529.80
2018-07-09T16:47:14.939Z,100526.59
2018-07-09T16:49:20.325Z,100524.56
2018-07-09T16:51:25.774Z,100532.19
2018-07-09T16:53:31.181Z,100529.52
2018-07-09T16:55:36.724Z,100531.20
2018-07-09T16:57:42.149Z,100530.55
2018-07-09T16:59:47.602Z,100531.73
2018-07-09T17:01:53.111Z,100534.80
2018-07-09T17:03:58.524Z,100529.20
2018-07-09T17:06:03.878Z,100525.15
2018-07-09T17:08:10.161Z,100525.68
2018-07-09T17:10:15.556Z,100522.83
2018-07-09T17:12:20.948Z,100525.86
2018-07-09T17:14:26.390Z,100521.13
2018-07-09T17:16:31.809Z,100526.22
2018-07-09T17:18:37.290Z,100517.11
2018-07-09T17:20:42.773Z,100526.05
2018-07-09T17:22:48.207Z,100521.52
2018-07-09T17:24:53.697Z,100520.52
2018-07-09T17:26:59.287Z,100521.39
2018-07-09T17:29:04.555Z,100516.83
2018-07-09T17:31:09.911Z,100517.82
2018-07-09T17:33:15.346Z,100521.39
2018-07-09T17:35:20.700Z,100519.88
2018-07-09T17:37:26.109Z,100516.86
2018-07-09T17:39:31.445Z,100513.17
2018-07-09T17:41:36.913Z,100515.55
2018-07-09T17:43:42.249Z,100518.42
2018-07-09T17:45:47.805Z,100521.30
2018-07-09T17:47:53.284Z,100518.55
2018-07-09T17:49:58.868Z,100515.89
2018-07-09T17:52:04.307Z,100516.41
2018-07-09T17:54:09.858Z,100517.25
2018-07-09T17:56:15.255Z,100521.97
2018-07-09T17:58:20.778Z,100520.48
2018-07-09T18:00:26.163Z,100524.34
2018-07-09T18:02:31.562Z,100518.27
2018-07-09T18:04:36.981Z,100520.81
2018-07-09T18:06:42.387Z,100524.69
2018-07-09T18:08:47.443Z,100521.62
2018-07-09T18:10:52.839Z,100521.12
2018-07-09T18:12:58.822Z,100527.33
2018-07-09T18:15:04.305Z,100525.14
2018-07-09T18:17:09.830Z,100521.94
2018-07-09T18:19:15.243Z,100524.45
2018-07-09T18:21:20.842Z,100522.41
2018-07-09T18:23:26.290Z,100523.92
2018-07-09T18:25:31.903Z,100527.45
2018-07-09T18:27:37.252Z,100526.11
2018-07-09T18:29:42.632Z,100515.33
2018-07-09T18:31:48.059Z,100518.48
2018-07-09T18:33:53.428Z,100526.56
2018-07-09T18:35:58.836Z,100517.60
2018-07-09T18:38:04.271Z,100513.90
2018-07-09T18:40:09.737Z,100520.59
2018-07-09T18:42:15.157Z,100513.20
2018-07-09T18:44:20.603Z,100514.20
2018-07-09T18:46:26.021Z,100516.35
2018-07-09T18:48:31.497Z,100512.80
2018-07-09T18:50:36.993Z,100516.67
2018-07-09T18:52:45.244Z,100512.09
2018-07-09T18:54:51.708Z,100523.34
2018-07-09T18:56:57.409Z,100525.53
2018-07-09T18:59:02.903Z,100527.86
2018-07-09T19:01:08.423Z,100531.19
2018-07-09T19:03:13.843Z,100530.44
2018-07-09T19:05:21.464Z,100530.23
2018-07-09T19:07:32.258Z,100531.20
2018-07-09T19:09:38.183Z,100531.34
2018-07-09T19:11:43.895Z,100529.48
2018-07-09T19:13:49.466Z,100529.61
2018-07-09T19:15:55.020Z,100526.56
2018-07-09T19:18:19.270Z,100523.86
2018-07-09T19:22:36.472Z,100531.91
2018-07-09T19:24:40.110Z,100533.65
2018-07-09T19:26:44.122Z,100538.67
2018-07-09T19:28:47.775Z,100532.63
2018-07-09T19:30:51.350Z,100535.61
2018-07-09T19:32:54.933Z,100539.13
2018-07-09T19:34:58.649Z,100542.95
2018-07-09T19:37:02.386Z,100544.23
2018-07-09T19:39:06.791Z,100542.37
2018-07-09T19:41:10.631Z,100540.33
2018-07-09T19:43:14.267Z,100536.61
2018-07-09T19:45:17.881Z,100543.66
2018-07-09T19:47:21.496Z,100535.36
2018-07-09T19:49:25.414Z,100538.51
2018-07-09T19:51:28.966Z,100546.72
2018-07-09T19:53:32.587Z,100550.05
2018-07-09T19:55:36.449Z,100544.34
2018-07-09T19:57:39.947Z,100543.30
2018-07-09T19:59:43.782Z,100550.68
2018-07-09T20:01:47.387Z,100558.39
2018-07-09T20:03:51.003Z,100560.38
2018-07-09T20:05:54.610Z,100553.62
2018-07-09T20:07:58.462Z,100551.39
2018-07-09T20:10:07.146Z,100552.48
2018-07-09T20:12:15.851Z,100550.62
2018-07-09T20:14:24.609Z,100550.20
2018-07-09T20:16:33.390Z,100552.31
2018-07-09T20:18:37.000Z,100554.25
2018-07-09T20:20:40.573Z,100555.56
2018-07-09T20:22:44.136Z,100559.41
2018-07-09T20:24:47.749Z,100555.52
2018-07-09T20:26:51.415Z,100554.31
2018-07-09T20:28:55.058Z,100553.07
2018-07-09T20:30:58.658Z,100549.99
2018-07-09T20:33:02.240Z,100553.79
2018-07-09T20:35:05.797Z,100556.22
2018-07-09T20:37:09.424Z,100551.44
2018-07-09T20:39:13.098Z,100553.72
2018-07-09T20:41:16.812Z,100551.66
2018-07-09T20:43:20.419Z,100546.95
2018-07-09T20:45:24.285Z,100547.70
2018-07-09T20:47:28.069Z,100548.00
2018-07-09T20:49:31.683Z,100549.13
2018-07-09T20:51:35.294Z,100545.05
2018-07-09T20:53:38.889Z,100550.59
2018-07-09T20:55:42.486Z,100542.32
2018-07-09T20:57:46.105Z,100541.78
2018-07-09T20:59:49.975Z,100546.38
2018-07-09T21:01:53.610Z,100548.30
2018-07-09T21:04:02.253Z,100541.98
2018-07-09T21:06:05.944Z,100541.70
2018-07-09T21:08:09.556Z,100544.59
2018-07-09T21:10:13.207Z,100536.98
2018-07-09T21:12:16.801Z,100545.69
2018-07-09T21:14:20.382Z,100545.47
2018-07-09T21:16:24.099Z,100545.27
2018-07-09T21:18:27.664Z,100548.55
2018-07-09T21:20:31.244Z,100549.98
2018-07-09T21:22:34.795Z,100545.16
2018-07-09T21:24:38.390Z,100548.06
2018-07-09T21:26:41.965Z,100555.32
2018-07-09T21:28:45.588Z,100554.96
2018-07-09T21:30:50.106Z,100558.66
2018-07-09T21:32:53.708Z,100565.98
2018-07-09T21:34:57.322Z,100561.41
2018-07-09T21:37:00.883Z,100567.27
2018-07-09T21:39:05.170Z,100565.08
2018-07-09T21:41:08.872Z,100569.23
2018-07-09T21:43:12.454Z,100567.04
2018-07-09T21:45:16.063Z,100569.23
2018-07-09T21:47:19.641Z,100565.70
2018-07-09T21:49:23.217Z,100569.59
2018-07-09T21:51:26.808Z,100566.91
2018-07-09T21:53:30.423Z,100564.72
2018-07-09T21:55:33.994Z,100566.06
2018-07-09T21:57:37.558Z,100565.56
2018-07-09T21:59:41.129Z,100563.52
2018-07-09T22:01:44.730Z,100552.70
2018-07-09T22:03:48.313Z,100553.00
2018-07-09T22:05:51.875Z,100555.81
2018-07-09T22:07:55.435Z,100561.11
2018-07-09T22:09:59.260Z,100564.22
2018-07-09T22:12:02.733Z,100567.45
2018-07-09T22:14:06.389Z,100569.22
2018-07-09T22:16:09.949Z,100567.46
2018-07-09T22:18:13.529Z,100567.88
2018-07-09T22:20:17.101Z,100559.26
2018-07-09T22:22:20.739Z,100565.40
2018-07-09T22:24:24.388Z,100561.02
2018-07-09T22:26:27.974Z,100563.14
2018-07-09T22:28:31.561Z,100569.13
2018-07-09T22:30:36.925Z,100563.89
2018-07-09T22:32:42.273Z,100561.63
2018-07-09T22:34:47.665Z,100565.58
2018-07-09T22:36:53.089Z,100561.98
2018-07-09T22:38:58.397Z,100557.38
2018-07-09T22:41:03.748Z,100558.97
2018-07-09T22:44:19.609Z,100565.11
2018-07-09T22:46:24.648Z,100561.48
2018-07-09T22:48:29.893Z,100563.20
2018-07-09T22:50:35.259Z,100563.49
2018-07-09T22:52:40.665Z,100559.05
2018-07-09T22:54:46.046Z,100562.61
2018-07-09T22:56:52.043Z,100555.48
2018-07-09T22:58:57.409Z,100555.41
2018-07-09T23:01:03.338Z,100557.28
2018-07-09T23:03:14.307Z,100555.14
2018-07-09T23:05:19.647Z,100555.18
2018-07-09T23:07:25.078Z,100555.19
2018-07-09T23:10:11.910Z,100552.07
2018-07-09T23:13:17.871Z,100548.99
2018-07-09T23:17:44.969Z,100546.14
2018-07-09T23:22:07.990Z,100546.22
2018-07-09T23:24:12.098Z,100544.55
2018-07-09T23:26:15.748Z,100540.17
2018-07-09T23:28:19.306Z,100549.05
2018-07-09T23:30:22.921Z,100546.73
2018-07-09T23:32:26.508Z,100544.55
2018-07-09T23:34:30.066Z,100550.02
2018-07-09T23:36:33.649Z,100542.73
2018-07-09T23:38:37.535Z,100543.45
2018-07-09T23:40:41.255Z,100545.13
2018-07-09T23:42:44.735Z,100553.99
2018-07-09T23:44:48.340Z,100545.48
2018-07-09T23:46:52.177Z,100542.09
2018-07-09T23:48:55.643Z,100535.37
2018-07-09T23:50:59.249Z,100537.48
2018-07-09T23:53:02.812Z,100531.25
2018-07-09T23:55:06.634Z,100530.52
2018-07-09T23:58:32.884Z,100533.27
